sensor_id;sensor_type;location;lat;lon;timestamp;temperature;humidity
55026;DHT22;40925;45.666;18.994;2023-05-24T00:01:34;487.00;2380.80
55026;DHT22;40925;45.666;18.994;2023-05-24T00:04:02;487.00;2380.80
55026;DHT22;40925;45.666;18.994;2023-05-24T00:06:28;486.90;2380.80
55026;DHT22;40925;45.666;18.994;2023-05-24T00:08:54;486.90;2380.80
55026;DHT22;40925;45.666;18.994;2023-05-24T00:11:20;486.90;2380.80
55026;DHT22;40925;45.666;18.994;2023-05-24T00:13:47;486.90;2380.80
55026;DHT22;40925;45.666;18.994;2023-05-24T00:16:13;486.80;2380.80
55026;DHT22;40925;45.666;18.994;2023-05-24T00:18:39;486.70;2380.80
55026;DHT22;40925;45.666;18.994;2023-05-24T00:21:11;486.70;2380.80
55026;DHT22;40925;45.666;18.994;2023-05-24T00:23:37;486.60;2380.80
55026;DHT22;40925;45.666;18.994;2023-05-24T00:26:04;486.60;2380.80
55026;DHT22;40925;45.666;18.994;2023-05-24T00:28:30;486.60;2380.80
55026;DHT22;40925;45.666;18.994;2023-05-24T00:30:57;486.60;2380.80
55026;DHT22;40925;45.666;18.994;2023-05-24T00:33:22;486.70;2380.80
55026;DHT22;40925;45.666;18.994;2023-05-24T00:35:49;486.60;2380.80
55026;DHT22;40925;45.666;18.994;2023-05-24T00:38:26;486.60;2380.80
55026;DHT22;40925;45.666;18.994;2023-05-24T00:40:52;486.50;2380.80
55026;DHT22;40925;45.666;18.994;2023-05-24T00:43:21;486.60;2380.80
55026;DHT22;40925;45.666;18.994;2023-05-24T00:48:13;486.70;2380.80
55026;DHT22;40925;45.666;18.994;2023-05-24T00:50:39;486.40;2380.80
55026;DHT22;40925;45.666;18.994;2023-05-24T01:13:07;461.50;2380.80
55026;DHT22;40925;45.666;18.994;2023-05-24T01:15:40;461.50;2380.80
55026;DHT22;40925;45.666;18.994;2023-05-24T01:18:19;461.50;2380.80
55026;DHT22;40925;45.666;18.994;2023-05-24T01:21:26;461.40;2380.80
55026;DHT22;40925;45.666;18.994;2023-05-24T01:23:48;461.40;2380.80
55026;DHT22;40925;45.666;18.994;2023-05-24T01:29:19;461.40;2380.80
55026;DHT22;40925;45.666;18.994;2023-05-24T01:31:45;461.40;2380.80
55026;DHT22;40925;45.666;18.994;2023-05-24T01:34:11;461.40;2380.80
55026;DHT22;40925;45.666;18.994;2023-05-24T01:36:37;461.40;2380.80
55026;DHT22;40925;45.666;18.994;2023-05-24T01:39:02;461.40;2380.80
55026;DHT22;40925;45.666;18.994;2023-05-24T01:44:29;461.50;2380.80
55026;DHT22;40925;45.666;18.994;2023-05-24T01:50:16;461.40;2380.80
55026;DHT22;40925;45.666;18.994;2023-05-24T01:52:43;461.40;2380.80
55026;DHT22;40925;45.666;18.994;2023-05-24T01:55:14;461.40;2380.80
55026;DHT22;40925;45.666;18.994;2023-05-24T01:57:43;461.40;2380.80
55026;DHT22;40925;45.666;18.994;2023-05-24T02:00:10;461.40;2380.80
55026;DHT22;40925;45.666;18.994;2023-05-24T02:02:36;461.40;2380.80
55026;DHT22;40925;45.666;18.994;2023-05-24T02:05:02;461.40;2380.80
55026;DHT22;40925;45.666;18.994;2023-05-24T02:07:28;461.40;2380.80
55026;DHT22;40925;45.666;18.994;2023-05-24T02:09:54;461.40;2380.80
55026;DHT22;40925;45.666;18.994;2023-05-24T02:12:20;461.40;2380.80
55026;DHT22;40925;45.666;18.994;2023-05-24T02:14:45;461.40;2380.80
55026;DHT22;40925;45.666;18.994;2023-05-24T02:17:16;461.50;2380.80
55026;DHT22;40925;45.666;18.994;2023-05-24T02:19:42;461.50;2380.80
55026;DHT22;40925;45.666;18.994;2023-05-24T02:22:09;461.50;2380.80
55026;DHT22;40925;45.666;18.994;2023-05-24T02:24:35;461.50;2380.80
55026;DHT22;40925;45.666;18.994;2023-05-24T02:27:02;461.50;2380.80
55026;DHT22;40925;45.666;18.994;2023-05-24T02:29:28;461.50;2380.80
55026;DHT22;40925;45.666;18.994;2023-05-24T02:31:53;461.50;2380.80
55026;DHT22;40925;45.666;18.994;2023-05-24T02:34:22;461.50;2380.80
55026;DHT22;40925;45.666;18.994;2023-05-24T02:36:48;461.50;2380.80
55026;DHT22;40925;45.666;18.994;2023-05-24T02:39:14;461.50;2380.80
55026;DHT22;40925;45.666;18.994;2023-05-24T02:41:39;461.50;2380.80
55026;DHT22;40925;45.666;18.994;2023-05-24T02:44:05;461.60;2380.80
55026;DHT22;40925;45.666;18.994;2023-05-24T02:46:32;461.60;2380.80
55026;DHT22;40925;45.666;18.994;2023-05-24T02:48:58;461.60;2380.80
55026;DHT22;40925;45.666;18.994;2023-05-24T02:51:23;461.60;2380.80
55026;DHT22;40925;45.666;18.994;2023-05-24T02:53:49;461.60;2380.80
55026;DHT22;40925;45.666;18.994;2023-05-24T02:56:15;461.60;2380.80
55026;DHT22;40925;45.666;18.994;2023-05-24T02:58:45;461.60;2380.80
55026;DHT22;40925;45.666;18.994;2023-05-24T03:01:11;461.60;2380.80
55026;DHT22;40925;45.666;18.994;2023-05-24T03:03:37;461.60;2380.80
55026;DHT22;40925;45.666;18.994;2023-05-24T03:06:04;461.60;2380.80
55026;DHT22;40925;45.666;18.994;2023-05-24T03:08:34;461.70;2380.80
55026;DHT22;40925;45.666;18.994;2023-05-24T03:11:02;461.70;2380.80
55026;DHT22;40925;45.666;18.994;2023-05-24T03:13:28;461.70;2380.80
55026;DHT22;40925;45.666;18.994;2023-05-24T03:15:53;486.40;2380.80
55026;DHT22;40925;45.666;18.994;2023-05-24T03:18:19;461.70;2380.80
55026;DHT22;40925;45.666;18.994;2023-05-24T03:20:45;486.40;2380.80
55026;DHT22;40925;45.666;18.994;2023-05-24T03:23:10;486.40;2380.80
55026;DHT22;40925;45.666;18.994;2023-05-24T03:25:37;486.40;2380.80
55026;DHT22;40925;45.666;18.994;2023-05-24T03:28:02;486.40;2380.80
55026;DHT22;40925;45.666;18.994;2023-05-24T03:30:28;461.70;2380.80
55026;DHT22;40925;45.666;18.994;2023-05-24T03:32:54;461.70;2380.80
55026;DHT22;40925;45.666;18.994;2023-05-24T03:35:20;461.70;2380.80
55026;DHT22;40925;45.666;18.994;2023-05-24T03:37:45;461.70;2380.80
55026;DHT22;40925;45.666;18.994;2023-05-24T03:40:11;461.60;2380.80
55026;DHT22;40925;45.666;18.994;2023-05-24T03:42:37;461.70;2380.80
55026;DHT22;40925;45.666;18.994;2023-05-24T03:45:04;486.40;2380.80
55026;DHT22;40925;45.666;18.994;2023-05-24T03:47:30;486.40;2380.80
55026;DHT22;40925;45.666;18.994;2023-05-24T03:49:56;486.40;2380.80
55026;DHT22;40925;45.666;18.994;2023-05-24T03:52:22;486.40;2380.80
55026;DHT22;40925;45.666;18.994;2023-05-24T03:54:48;461.70;2380.80
55026;DHT22;40925;45.666;18.994;2023-05-24T03:57:14;461.70;2380.80
55026;DHT22;40925;45.666;18.994;2023-05-24T03:59:40;461.70;2380.80
55026;DHT22;40925;45.666;18.994;2023-05-24T04:02:06;461.70;2380.80
55026;DHT22;40925;45.666;18.994;2023-05-24T04:04:31;461.60;2380.80
55026;DHT22;40925;45.666;18.994;2023-05-24T04:06:57;461.60;2380.80
55026;DHT22;40925;45.666;18.994;2023-05-24T04:09:23;461.60;2380.80
55026;DHT22;40925;45.666;18.994;2023-05-24T04:11:49;461.60;2380.80
55026;DHT22;40925;45.666;18.994;2023-05-24T04:14:15;461.60;2380.80
55026;DHT22;40925;45.666;18.994;2023-05-24T04:16:40;461.60;2380.80
55026;DHT22;40925;45.666;18.994;2023-05-24T04:19:09;461.60;2380.80
55026;DHT22;40925;45.666;18.994;2023-05-24T04:21:36;461.60;2380.80
55026;DHT22;40925;45.666;18.994;2023-05-24T04:24:02;461.60;2380.80
55026;DHT22;40925;45.666;18.994;2023-05-24T04:26:29;461.60;2380.80
55026;DHT22;40925;45.666;18.994;2023-05-24T04:28:55;461.60;2380.80
55026;DHT22;40925;45.666;18.994;2023-05-24T04:31:21;461.70;2380.80
55026;DHT22;40925;45.666;18.994;2023-05-24T04:33:47;461.70;2380.80
55026;DHT22;40925;45.666;18.994;2023-05-24T04:36:14;461.60;2380.80
55026;DHT22;40925;45.666;18.994;2023-05-24T04:38:40;461.70;2380.80
55026;DHT22;40925;45.666;18.994;2023-05-24T04:41:06;486.40;2380.80
55026;DHT22;40925;45.666;18.994;2023-05-24T04:43:32;486.40;2380.80
55026;DHT22;40925;45.666;18.994;2023-05-24T04:46:01;486.50;2380.80
55026;DHT22;40925;45.666;18.994;2023-05-24T04:48:27;486.60;2380.80
55026;DHT22;40925;45.666;18.994;2023-05-24T04:50:54;486.60;2380.80
55026;DHT22;40925;45.666;18.994;2023-05-24T04:53:20;486.70;2380.80
55026;DHT22;40925;45.666;18.994;2023-05-24T04:55:47;486.70;2380.80
55026;DHT22;40925;45.666;18.994;2023-05-24T04:58:13;486.70;2380.80
55026;DHT22;40925;45.666;18.994;2023-05-24T05:00:39;486.80;2380.80
55026;DHT22;40925;45.666;18.994;2023-05-24T05:05:32;487.10;2380.80
55026;DHT22;40925;45.666;18.994;2023-05-24T05:07:57;486.90;2380.80
55026;DHT22;40925;45.666;18.994;2023-05-24T05:10:23;487.30;2380.80
55026;DHT22;40925;45.666;18.994;2023-05-24T05:12:50;486.90;2380.80
55026;DHT22;40925;45.666;18.994;2023-05-24T05:15:16;486.90;2380.80
55026;DHT22;40925;45.666;18.994;2023-05-24T05:17:41;486.90;2380.80
55026;DHT22;40925;45.666;18.994;2023-05-24T05:20:07;487.00;2380.80
55026;DHT22;40925;45.666;18.994;2023-05-24T05:22:33;487.00;2380.80
55026;DHT22;40925;45.666;18.994;2023-05-24T05:24:59;487.20;2380.80
55026;DHT22;40925;45.666;18.994;2023-05-24T05:27:26;487.20;2380.80
55026;DHT22;40925;45.666;18.994;2023-05-24T05:32:17;512.10;2380.80
55026;DHT22;40925;45.666;18.994;2023-05-24T05:39:35;512.40;2380.80
55026;DHT22;40925;45.666;18.994;2023-05-24T05:42:01;512.20;2380.80
55026;DHT22;40925;45.666;18.994;2023-05-24T05:44:27;512.20;2380.80
55026;DHT22;40925;45.666;18.994;2023-05-24T05:46:53;512.20;2380.80
55026;DHT22;40925;45.666;18.994;2023-05-24T05:49:19;512.20;2380.80
55026;DHT22;40925;45.666;18.994;2023-05-24T05:51:45;512.30;2380.80
55026;DHT22;40925;45.666;18.994;2023-05-24T05:54:11;512.30;2380.80
55026;DHT22;40925;45.666;18.994;2023-05-24T05:56:43;512.60;2380.80
55026;DHT22;40925;45.666;18.994;2023-05-24T06:01:38;512.80;2380.80
55026;DHT22;40925;45.666;18.994;2023-05-24T06:04:04;512.90;2380.80
55026;DHT22;40925;45.666;18.994;2023-05-24T07:12:40;537.90;2406.40
55026;DHT22;40925;45.666;18.994;2023-05-24T07:15:06;538.40;2406.40
55026;DHT22;40925;45.666;18.994;2023-05-24T07:17:34;538.20;2406.40
55026;DHT22;40925;45.666;18.994;2023-05-24T07:20:00;538.20;2406.40
55026;DHT22;40925;45.666;18.994;2023-05-24T07:22:26;538.20;2406.40
55026;DHT22;40925;45.666;18.994;2023-05-24T07:24:53;538.40;2406.40
55026;DHT22;40925;45.666;18.994;2023-05-24T07:27:19;538.50;2406.40
55026;DHT22;40925;45.666;18.994;2023-05-24T07:29:45;563.30;2432.00
55026;DHT22;40925;45.666;18.994;2023-05-24T07:32:10;563.30;2432.00
55026;DHT22;40925;45.666;18.994;2023-05-24T07:34:36;563.40;2432.00
55026;DHT22;40925;45.666;18.994;2023-05-24T07:37:04;563.50;2432.00
55026;DHT22;40925;45.666;18.994;2023-05-24T07:39:29;563.70;2432.00
55026;DHT22;40925;45.666;18.994;2023-05-24T07:41:55;563.70;2432.00
55026;DHT22;40925;45.666;18.994;2023-05-24T07:44:21;563.80;2432.00
55026;DHT22;40925;45.666;18.994;2023-05-24T07:49:15;564.10;2432.00
55026;DHT22;40925;45.666;18.994;2023-05-24T07:51:41;564.10;2432.00
55026;DHT22;40925;45.666;18.994;2023-05-24T07:54:06;589.00;2432.00
55026;DHT22;40925;45.666;18.994;2023-05-24T07:56:32;589.20;2432.00
55026;DHT22;40925;45.666;18.994;2023-05-24T07:58:58;589.40;2432.00
55026;DHT22;40925;45.666;18.994;2023-05-24T08:01:32;589.70;2432.00
55026;DHT22;40925;45.666;18.994;2023-05-24T08:06:26;614.80;2432.00
55026;DHT22;40925;45.666;18.994;2023-05-24T08:08:52;614.70;2432.00
55026;DHT22;40925;45.666;18.994;2023-05-24T08:11:18;614.70;2432.00
55026;DHT22;40925;45.666;18.994;2023-05-24T08:13:44;614.60;2432.00
55026;DHT22;40925;45.666;18.994;2023-05-24T08:16:10;614.60;2432.00
55026;DHT22;40925;45.666;18.994;2023-05-24T08:18:35;614.60;2432.00
55026;DHT22;40925;45.666;18.994;2023-05-24T08:21:01;614.50;2432.00
55026;DHT22;40925;45.666;18.994;2023-05-24T08:23:27;614.50;2432.00
55026;DHT22;40925;45.666;18.994;2023-05-24T08:25:57;614.50;2432.00
55026;DHT22;40925;45.666;18.994;2023-05-24T08:28:24;614.50;2432.00
55026;DHT22;40925;45.666;18.994;2023-05-24T08:30:50;614.60;2432.00
55026;DHT22;40925;45.666;18.994;2023-05-24T08:33:15;614.70;2432.00
55026;DHT22;40925;45.666;18.994;2023-05-24T08:35:41;614.70;2432.00
55026;DHT22;40925;45.666;18.994;2023-05-24T08:38:08;614.60;2432.00
55026;DHT22;40925;45.666;18.994;2023-05-24T08:43:02;640.00;2432.00
55026;DHT22;40925;45.666;18.994;2023-05-24T08:45:31;640.20;2432.00
55026;DHT22;40925;45.666;18.994;2023-05-24T08:47:59;640.60;2432.00
55026;DHT22;40925;45.666;18.994;2023-05-24T08:50:26;640.60;2432.00
55026;DHT22;40925;45.666;18.994;2023-05-24T08:52:53;640.50;2432.00
55026;DHT22;40925;45.666;18.994;2023-05-24T08:55:19;640.70;2432.00
55026;DHT22;40925;45.666;18.994;2023-05-24T08:57:46;665.80;2432.00
55026;DHT22;40925;45.666;18.994;2023-05-24T09:00:12;666.20;2432.00
55026;DHT22;40925;45.666;18.994;2023-05-24T09:02:39;666.40;2432.00
55026;DHT22;40925;45.666;18.994;2023-05-24T09:05:11;666.40;2432.00
55026;DHT22;40925;45.666;18.994;2023-05-24T09:07:39;666.50;2380.80
55026;DHT22;40925;45.666;18.994;2023-05-24T09:10:07;666.50;2432.00
55026;DHT22;40925;45.666;18.994;2023-05-24T09:12:35;666.00;2432.00
55026;DHT22;40925;45.666;18.994;2023-05-24T09:15:02;640.90;2432.00
55026;DHT22;40925;45.666;18.994;2023-05-24T09:17:29;665.90;2432.00
55026;DHT22;40925;45.666;18.994;2023-05-24T09:19:56;665.60;2432.00
55026;DHT22;40925;45.666;18.994;2023-05-24T09:22:26;640.60;2432.00
55026;DHT22;40925;45.666;18.994;2023-05-24T09:24:56;640.80;2432.00
55026;DHT22;40925;45.666;18.994;2023-05-24T09:27:22;665.60;2432.00
55026;DHT22;40925;45.666;18.994;2023-05-24T09:29:49;665.60;2432.00
55026;DHT22;40925;45.666;18.994;2023-05-24T09:32:16;665.80;2432.00
55026;DHT22;40925;45.666;18.994;2023-05-24T09:34:43;665.90;2432.00
55026;DHT22;40925;45.666;18.994;2023-05-24T09:37:15;666.20;2432.00
55026;DHT22;40925;45.666;18.994;2023-05-24T09:39:45;666.00;2432.00
55026;DHT22;40925;45.666;18.994;2023-05-24T09:42:22;666.20;2406.40
55026;DHT22;40925;45.666;18.994;2023-05-24T09:45:05;691.50;2355.20
55026;DHT22;40925;45.666;18.994;2023-05-24T09:47:34;691.80;2227.20
55026;DHT22;40925;45.666;18.994;2023-05-24T09:50:04;692.00;2150.40
55026;DHT22;40925;45.666;18.994;2023-05-24T09:52:35;692.10;2048.00
55026;DHT22;40925;45.666;18.994;2023-05-24T09:55:17;716.80;2099.20
55026;DHT22;40925;45.666;18.994;2023-05-24T09:57:44;716.90;2099.20
55026;DHT22;40925;45.666;18.994;2023-05-24T10:00:19;717.30;2073.60
55026;DHT22;40925;45.666;18.994;2023-05-24T10:03:02;717.60;1996.80
55026;DHT22;40925;45.666;18.994;2023-05-24T10:05:29;717.50;1971.20
55026;DHT22;40925;45.666;18.994;2023-05-24T10:07:56;717.70;1971.20
55026;DHT22;40925;45.666;18.994;2023-05-24T10:10:22;742.40;1945.60
55026;DHT22;40925;45.666;18.994;2023-05-24T10:12:49;717.50;1894.40
55026;DHT22;40925;45.666;18.994;2023-05-24T10:15:16;742.40;1945.60
55026;DHT22;40925;45.666;18.994;2023-05-24T10:17:42;717.70;1920.00
55026;DHT22;40925;45.666;18.994;2023-05-24T10:20:08;717.50;1894.40
55026;DHT22;40925;45.666;18.994;2023-05-24T10:22:45;717.30;1920.00
55026;DHT22;40925;45.666;18.994;2023-05-24T10:25:22;742.40;1894.40
55026;DHT22;40925;45.666;18.994;2023-05-24T10:27:53;717.60;1894.40
55026;DHT22;40925;45.666;18.994;2023-05-24T10:32:55;742.50;1843.20
55026;DHT22;40925;45.666;18.994;2023-05-24T10:35:22;742.70;1817.60
55026;DHT22;40925;45.666;18.994;2023-05-24T10:37:49;742.90;1817.60
55026;DHT22;40925;45.666;18.994;2023-05-24T10:40:19;742.90;1792.00
55026;DHT22;40925;45.666;18.994;2023-05-24T10:42:45;743.00;1766.40
55026;DHT22;40925;45.666;18.994;2023-05-24T10:47:50;743.20;1740.80
55026;DHT22;40925;45.666;18.994;2023-05-24T10:50:20;768.10;1740.80
55026;DHT22;40925;45.666;18.994;2023-05-24T10:52:49;743.10;1740.80
55026;DHT22;40925;45.666;18.994;2023-05-24T10:55:15;743.00;1766.40
55026;DHT22;40925;45.666;18.994;2023-05-24T10:57:43;742.70;1740.80
55026;DHT22;40925;45.666;18.994;2023-05-24T11:03:09;742.80;1689.60
55026;DHT22;40925;45.666;18.994;2023-05-24T11:08:10;742.80;1715.20
55026;DHT22;40925;45.666;18.994;2023-05-24T11:10:37;742.90;1664.00
55026;DHT22;40925;45.666;18.994;2023-05-24T11:13:06;742.80;1689.60
55026;DHT22;40925;45.666;18.994;2023-05-24T11:15:33;742.70;1664.00
55026;DHT22;40925;45.666;18.994;2023-05-24T11:20:34;742.90;1689.60
55026;DHT22;40925;45.666;18.994;2023-05-24T11:23:08;742.80;1638.40
55026;DHT22;40925;45.666;18.994;2023-05-24T11:25:34;742.80;1689.60
55026;DHT22;40925;45.666;18.994;2023-05-24T11:28:02;742.90;1664.00
55026;DHT22;40925;45.666;18.994;2023-05-24T11:30:29;743.20;1689.60
55026;DHT22;40925;45.666;18.994;2023-05-24T11:32:57;743.10;1638.40
55026;DHT22;40925;45.666;18.994;2023-05-24T11:35:25;742.90;1689.60
55026;DHT22;40925;45.666;18.994;2023-05-24T11:38:01;743.30;1664.00
55026;DHT22;40925;45.666;18.994;2023-05-24T11:40:27;743.20;1664.00
55026;DHT22;40925;45.666;18.994;2023-05-24T11:42:53;717.70;1715.20
55026;DHT22;40925;45.666;18.994;2023-05-24T11:45:19;717.40;1766.40
55026;DHT22;40925;45.666;18.994;2023-05-24T11:47:47;717.70;1740.80
55026;DHT22;40925;45.666;18.994;2023-05-24T11:50:14;742.80;1740.80
55026;DHT22;40925;45.666;18.994;2023-05-24T11:52:41;742.80;1715.20
55026;DHT22;40925;45.666;18.994;2023-05-24T11:55:09;717.70;1689.60
55026;DHT22;40925;45.666;18.994;2023-05-24T11:57:41;717.10;1766.40
55026;DHT22;40925;45.666;18.994;2023-05-24T12:00:11;742.40;1792.00
55026;DHT22;40925;45.666;18.994;2023-05-24T12:02:41;742.70;1715.20
55026;DHT22;40925;45.666;18.994;2023-05-24T12:05:10;743.30;1664.00
55026;DHT22;40925;45.666;18.994;2023-05-24T12:07:38;768.30;1612.80
55026;DHT22;40925;45.666;18.994;2023-05-24T12:10:05;768.80;1561.60
55026;DHT22;40925;45.666;18.994;2023-05-24T12:12:33;768.50;1536.00
55026;DHT22;40925;45.666;18.994;2023-05-24T12:14:58;768.30;1561.60
55026;DHT22;40925;45.666;18.994;2023-05-24T12:17:24;768.80;1510.40
55026;DHT22;40925;45.666;18.994;2023-05-24T12:19:50;768.70;1536.00
55026;DHT22;40925;45.666;18.994;2023-05-24T12:22:16;768.80;1510.40
55026;DHT22;40925;45.666;18.994;2023-05-24T12:24:42;793.90;1510.40
55026;DHT22;40925;45.666;18.994;2023-05-24T12:27:08;794.00;1433.60
55026;DHT22;40925;45.666;18.994;2023-05-24T12:29:39;793.90;1433.60
55026;DHT22;40925;45.666;18.994;2023-05-24T12:32:08;768.90;1433.60
55026;DHT22;40925;45.666;18.994;2023-05-24T12:34:39;793.60;1484.80
55026;DHT22;40925;45.666;18.994;2023-05-24T12:37:07;768.80;1484.80
55026;DHT22;40925;45.666;18.994;2023-05-24T12:39:35;768.90;1484.80
55026;DHT22;40925;45.666;18.994;2023-05-24T12:42:02;768.80;1433.60
55026;DHT22;40925;45.666;18.994;2023-05-24T12:44:34;793.60;1459.20
55026;DHT22;40925;45.666;18.994;2023-05-24T12:47:03;793.90;1459.20
55026;DHT22;40925;45.666;18.994;2023-05-24T12:49:30;768.90;1459.20
55026;DHT22;40925;45.666;18.994;2023-05-24T12:51:56;768.80;1433.60
55026;DHT22;40925;45.666;18.994;2023-05-24T12:54:24;793.80;1459.20
55026;DHT22;40925;45.666;18.994;2023-05-24T12:56:51;794.40;1356.80
55026;DHT22;40925;45.666;18.994;2023-05-24T12:59:17;794.10;1382.40
55026;DHT22;40925;45.666;18.994;2023-05-24T13:01:43;794.30;1356.80
55026;DHT22;40925;45.666;18.994;2023-05-24T13:04:18;794.40;1356.80
55026;DHT22;40925;45.666;18.994;2023-05-24T13:06:45;794.40;1382.40
55026;DHT22;40925;45.666;18.994;2023-05-24T13:09:10;794.40;1356.80
55026;DHT22;40925;45.666;18.994;2023-05-24T13:11:38;794.40;1331.20
55026;DHT22;40925;45.666;18.994;2023-05-24T13:14:04;794.40;1331.20
55026;DHT22;40925;45.666;18.994;2023-05-24T13:16:30;819.30;1331.20
55026;DHT22;40925;45.666;18.994;2023-05-24T13:18:56;819.30;1305.60
55026;DHT22;40925;45.666;18.994;2023-05-24T13:21:22;819.20;1331.20
55026;DHT22;40925;45.666;18.994;2023-05-24T13:23:48;819.30;1331.20
55026;DHT22;40925;45.666;18.994;2023-05-24T13:26:14;819.20;1280.00
55026;DHT22;40925;45.666;18.994;2023-05-24T13:28:40;819.20;1280.00
55026;DHT22;40925;45.666;18.994;2023-05-24T13:31:07;819.20;1254.40
55026;DHT22;40925;45.666;18.994;2023-05-24T13:33:33;819.30;1280.00
55026;DHT22;40925;45.666;18.994;2023-05-24T13:35:59;819.30;1228.80
55026;DHT22;40925;45.666;18.994;2023-05-24T13:38:26;819.20;1254.40
55026;DHT22;40925;45.666;18.994;2023-05-24T13:40:53;819.20;1280.00
55026;DHT22;40925;45.666;18.994;2023-05-24T13:43:18;794.20;1280.00
55026;DHT22;40925;45.666;18.994;2023-05-24T13:45:44;794.10;1280.00
55026;DHT22;40925;45.666;18.994;2023-05-24T13:48:10;794.40;1280.00
55026;DHT22;40925;45.666;18.994;2023-05-24T13:50:36;794.30;1254.40
55026;DHT22;40925;45.666;18.994;2023-05-24T13:53:03;794.20;1254.40
55026;DHT22;40925;45.666;18.994;2023-05-24T13:55:30;794.30;1254.40
55026;DHT22;40925;45.666;18.994;2023-05-24T13:57:56;819.20;1254.40
55026;DHT22;40925;45.666;18.994;2023-05-24T14:00:23;794.40;1280.00
55026;DHT22;40925;45.666;18.994;2023-05-24T14:02:50;794.40;1254.40
55026;DHT22;40925;45.666;18.994;2023-05-24T14:05:17;794.30;1254.40
55026;DHT22;40925;45.666;18.994;2023-05-24T14:07:42;794.40;1254.40
55026;DHT22;40925;45.666;18.994;2023-05-24T14:10:09;794.20;1254.40
55026;DHT22;40925;45.666;18.994;2023-05-24T14:12:34;794.10;1254.40
55026;DHT22;40925;45.666;18.994;2023-05-24T14:15:00;794.10;1254.40
55026;DHT22;40925;45.666;18.994;2023-05-24T14:17:26;794.10;1280.00
55026;DHT22;40925;45.666;18.994;2023-05-24T14:19:52;794.30;1280.00
55026;DHT22;40925;45.666;18.994;2023-05-24T14:22:18;819.20;1254.40
55026;DHT22;40925;45.666;18.994;2023-05-24T14:24:44;794.40;1228.80
55026;DHT22;40925;45.666;18.994;2023-05-24T14:27:10;794.10;1254.40
55026;DHT22;40925;45.666;18.994;2023-05-24T14:29:36;793.90;1254.40
55026;DHT22;40925;45.666;18.994;2023-05-24T14:32:02;793.90;1254.40
55026;DHT22;40925;45.666;18.994;2023-05-24T14:34:27;793.90;1280.00
55026;DHT22;40925;45.666;18.994;2023-05-24T14:36:53;794.10;1280.00
55026;DHT22;40925;45.666;18.994;2023-05-24T14:39:19;794.10;1280.00
55026;DHT22;40925;45.666;18.994;2023-05-24T14:41:45;794.10;1254.40
55026;DHT22;40925;45.666;18.994;2023-05-24T14:44:10;794.00;1280.00
55026;DHT22;40925;45.666;18.994;2023-05-24T14:46:36;794.20;1280.00
55026;DHT22;40925;45.666;18.994;2023-05-24T14:49:02;794.00;1254.40
55026;DHT22;40925;45.666;18.994;2023-05-24T14:51:29;793.90;1254.40
55026;DHT22;40925;45.666;18.994;2023-05-24T14:53:54;793.60;1280.00
55026;DHT22;40925;45.666;18.994;2023-05-24T14:56:20;793.60;1280.00
55026;DHT22;40925;45.666;18.994;2023-05-24T14:58:46;768.90;1254.40
55026;DHT22;40925;45.666;18.994;2023-05-24T15:01:12;768.90;1254.40
55026;DHT22;40925;45.666;18.994;2023-05-24T15:03:37;768.90;1254.40
55026;DHT22;40925;45.666;18.994;2023-05-24T15:06:03;793.70;1280.00
55026;DHT22;40925;45.666;18.994;2023-05-24T15:08:29;793.60;1280.00
55026;DHT22;40925;45.666;18.994;2023-05-24T15:10:55;793.60;1254.40
55026;DHT22;40925;45.666;18.994;2023-05-24T15:13:21;768.90;1254.40
55026;DHT22;40925;45.666;18.994;2023-05-24T15:20:40;793.60;1280.00
55026;DHT22;40925;45.666;18.994;2023-05-24T15:23:06;768.90;1254.40
55026;DHT22;40925;45.666;18.994;2023-05-24T15:25:35;768.90;1254.40
55026;DHT22;40925;45.666;18.994;2023-05-24T15:28:00;768.90;1228.80
55026;DHT22;40925;45.666;18.994;2023-05-24T15:30:26;768.90;1254.40
55026;DHT22;40925;45.666;18.994;2023-05-24T15:32:52;768.90;1254.40
55026;DHT22;40925;45.666;18.994;2023-05-24T15:45:03;793.60;1280.00
55026;DHT22;40925;45.666;18.994;2023-05-24T15:47:30;768.50;1280.00
55026;DHT22;40925;45.666;18.994;2023-05-24T15:50:01;768.50;1305.60
55026;DHT22;40925;45.666;18.994;2023-05-24T15:52:27;768.40;1305.60
55026;DHT22;40925;45.666;18.994;2023-05-24T15:54:53;768.30;1305.60
55026;DHT22;40925;45.666;18.994;2023-05-24T15:57:18;768.20;1331.20
55026;DHT22;40925;45.666;18.994;2023-05-24T15:59:44;768.10;1356.80
55026;DHT22;40925;45.666;18.994;2023-05-24T16:02:10;743.30;1331.20
55026;DHT22;40925;45.666;18.994;2023-05-24T16:04:35;742.70;1356.80
55026;DHT22;40925;45.666;18.994;2023-05-24T16:07:01;742.40;1382.40
55026;DHT22;40925;45.666;18.994;2023-05-24T16:09:27;717.50;1382.40
55026;DHT22;40925;45.666;18.994;2023-05-24T16:11:53;717.20;1408.00
55026;DHT22;40925;45.666;18.994;2023-05-24T16:14:18;717.00;1433.60
55026;DHT22;40925;45.666;18.994;2023-05-24T16:16:44;692.10;1433.60
55026;DHT22;40925;45.666;18.994;2023-05-24T16:19:10;716.90;1459.20
55026;DHT22;40925;45.666;18.994;2023-05-24T16:21:36;717.00;1433.60
55026;DHT22;40925;45.666;18.994;2023-05-24T16:24:03;717.10;1433.60
55026;DHT22;40925;45.666;18.994;2023-05-24T16:26:29;692.10;1433.60
55026;DHT22;40925;45.666;18.994;2023-05-24T16:28:55;692.10;1459.20
55026;DHT22;40925;45.666;18.994;2023-05-24T16:31:21;691.80;1459.20
55026;DHT22;40925;45.666;18.994;2023-05-24T16:33:46;691.80;1459.20
55026;DHT22;40925;45.666;18.994;2023-05-24T16:36:12;691.70;1484.80
55026;DHT22;40925;45.666;18.994;2023-05-24T16:38:38;691.50;1510.40
55026;DHT22;40925;45.666;18.994;2023-05-24T16:41:04;691.50;1510.40
55026;DHT22;40925;45.666;18.994;2023-05-24T16:43:31;691.40;1510.40
55026;DHT22;40925;45.666;18.994;2023-05-24T16:45:57;691.40;1510.40
55026;DHT22;40925;45.666;18.994;2023-05-24T16:48:23;691.60;1510.40
55026;DHT22;40925;45.666;18.994;2023-05-24T16:50:53;691.30;1536.00
55026;DHT22;40925;45.666;18.994;2023-05-24T16:53:27;691.20;1536.00
55026;DHT22;40925;45.666;18.994;2023-05-24T16:55:54;691.20;1536.00
55026;DHT22;40925;45.666;18.994;2023-05-24T16:58:25;666.50;1536.00
55026;DHT22;40925;45.666;18.994;2023-05-24T17:00:54;691.20;1536.00